This is the latest recevied weather packets stored in our database for station/object KF6RAL-6. If no packets are shown the sender has not sent any weather packets the latest 10 day(s).
| Time | Temp. | Humidity | Pressure | Rain* | Wind** | Luminosity | Snow |
|---|---|---|---|---|---|---|---|
| 1777747904 | 15.56° C | 64% | 1018.2 hPa | 0 mm | - | - | - |
| 1777747483 | 15.56° C | 61% | 1018.6 hPa | 0 mm | - | - | - |
| 1777747063 | 15.56° C | 62% | 1018.7 hPa | 0 mm | - | - | - |
| 1777746642 | 16.11° C | 57% | 1018.5 hPa | 0 mm | - | - | - |
| 1777746220 | 16.67° C | 51% | 1018.7 hPa | 0 mm | - | - | - |
| 1777745800 | 16.11° C | 51% | 1018.8 hPa | 0 mm | - | - | - |
| 1777745378 | 16.11° C | 49% | 1018.7 hPa | 0 mm | - | - | - |
| 1777744957 | 15.56° C | 46% | 1018.3 hPa | 0 mm | - | - | - |
| 1777744537 | 15° C | 49% | 1018.3 hPa | 0 mm | - | - | - |
| 1777744116 | 15° C | 53% | 1019.2 hPa | 0 mm | - | - | - |
| 1777743273 | 15° C | 52% | 1019.2 hPa | 0 mm | - | - | - |
| 1777742852 | 15° C | 54% | 1019.2 hPa | 0 mm | - | - | - |
| 1777742431 | 14.44° C | 56% | 1019.2 hPa | 0 mm | - | - | - |
| 1777742010 | 14.44° C | 57% | 1019.2 hPa | 0 mm | - | - | - |
| 1777741589 | 14.44° C | 56% | 1019.2 hPa | 0 mm | - | - | - |
| 1777741169 | 13.89° C | 57% | 1018.7 hPa | 0 mm | - | - | - |
| 1777740747 | 13.89° C | 57% | 1018.8 hPa | 0 mm | - | - | - |
| 1777740326 | 13.33° C | 59% | 1019.3 hPa | 0 mm | - | - | - |
| 1777739906 | 13.33° C | 59% | 1019.3 hPa | 0 mm | - | - | - |
| 1777739484 | 13.33° C | 61% | 1019.4 hPa | 0 mm | - | - | - |
| 1777739063 | 13.33° C | 60% | 1019.4 hPa | 0 mm | - | - | - |
| 1777738644 | 13.33° C | 60% | 1019.4 hPa | 0 mm | - | - | - |
| 1777738223 | 13.33° C | 59% | 1019.4 hPa | 0 mm | - | - | - |
| 1777737800 | 13.33° C | 59% | 1019.4 hPa | 0 mm | - | - | - |
| 1777737379 | 12.78° C | 62% | 1019.4 hPa | 0 mm | - | - | - |
* Rain latest hour (hover to see other rain measurements)
** Current wind speed in m/s (hover to see current wind gust speed)